createdAt,value
2017-12-22T00:00:53.166Z,58.30
2017-12-22T00:03:21.518Z,60.27
2017-12-22T00:05:49.855Z,60.95
2017-12-22T00:08:18.214Z,48.83
2017-12-22T00:10:46.552Z,62.67
2017-12-22T00:13:14.917Z,60.35
2017-12-22T00:15:47.602Z,61.90
2017-12-22T00:18:15.923Z,64.17
2017-12-22T00:20:44.275Z,56.97
2017-12-22T00:23:12.598Z,54.97
2017-12-22T00:25:40.941Z,47.40
2017-12-22T00:28:09.266Z,49.53
2017-12-22T00:30:37.609Z,56.50
2017-12-22T00:33:05.938Z,41.97
2017-12-22T00:35:34.282Z,58.58
2017-12-22T00:38:02.606Z,56.40
2017-12-22T00:40:30.954Z,51.72
2017-12-22T00:42:59.274Z,59.67
2017-12-22T00:45:27.626Z,54.28
2017-12-22T00:47:55.951Z,57.67
2017-12-22T00:50:24.298Z,62.25
2017-12-22T00:52:52.626Z,63.15
2017-12-22T00:55:20.973Z,56.92
2017-12-22T00:57:49.294Z,58.38
2017-12-22T01:00:17.642Z,62.53
2017-12-22T01:02:45.966Z,50.38
2017-12-22T01:05:14.309Z,57.50
2017-12-22T01:07:42.654Z,62.95
2017-12-22T01:10:10.978Z,58.95
2017-12-22T01:12:39.327Z,63.70
2017-12-22T01:15:07.650Z,64.03
2017-12-22T01:17:41.561Z,72.30
2017-12-22T01:20:09.887Z,71.07
2017-12-22T01:22:38.230Z,57.67
2017-12-22T01:25:06.554Z,60.05
2017-12-22T01:27:34.902Z,61.97
2017-12-22T01:30:03.235Z,66.12
2017-12-22T01:32:31.574Z,62.70
2017-12-22T01:34:59.898Z,54.67
2017-12-22T01:37:28.242Z,52.67
2017-12-22T01:39:56.566Z,59.38
2017-12-22T01:42:24.909Z,59.30
2017-12-22T01:44:53.234Z,65.75
2017-12-22T01:47:21.583Z,60.65
2017-12-22T01:49:49.908Z,53.05
2017-12-22T01:52:18.260Z,61.08
2017-12-22T01:54:46.587Z,63.83
2017-12-22T01:57:14.950Z,66.90
2017-12-22T01:59:43.278Z,59.72
2017-12-22T02:02:11.605Z,69.70
2017-12-22T02:04:39.954Z,57.55
2017-12-22T02:07:08.270Z,61.75
2017-12-22T02:09:36.618Z,65.90
2017-12-22T02:12:04.942Z,62.80
2017-12-22T02:14:33.286Z,58.45
2017-12-22T02:17:01.612Z,69.37
2017-12-22T02:19:29.953Z,69.10
2017-12-22T02:21:58.282Z,59.90
2017-12-22T02:24:26.626Z,65.57
2017-12-22T02:26:54.954Z,74.15
2017-12-22T02:29:23.300Z,74.12
2017-12-22T02:31:51.658Z,54.13
2017-12-22T02:34:20.003Z,57.33
2017-12-22T02:36:48.331Z,64.95
2017-12-22T02:39:16.676Z,59.25
2017-12-22T02:41:44.999Z,58.70
2017-12-22T02:44:13.346Z,57.00
2017-12-22T02:46:41.676Z,65.12
2017-12-22T02:49:10.042Z,56.67
2017-12-22T02:54:12.934Z,66.32
2017-12-22T02:56:41.262Z,60.60
2017-12-22T02:59:09.582Z,59.13
2017-12-22T03:01:37.925Z,64.82
2017-12-22T03:04:06.254Z,61.30
2017-12-22T03:06:34.602Z,69.95
2017-12-22T03:09:02.917Z,59.58
2017-12-22T03:11:31.265Z,69.43
2017-12-22T03:13:59.595Z,56.58
2017-12-22T03:16:27.942Z,67.45
2017-12-22T03:18:56.271Z,65.65
2017-12-22T03:21:24.762Z,59.63
2017-12-22T03:23:53.086Z,56.55
2017-12-22T03:26:21.429Z,54.65
2017-12-22T03:28:49.758Z,62.17
2017-12-22T03:31:18.113Z,58.15
2017-12-22T03:33:46.437Z,54.63
2017-12-22T03:36:14.782Z,60.42
2017-12-22T03:38:43.105Z,66.35
2017-12-22T03:41:11.453Z,48.08
2017-12-22T03:43:39.778Z,64.85
2017-12-22T03:46:08.121Z,51.05
2017-12-22T03:48:36.448Z,54.40
2017-12-22T03:51:04.774Z,62.03
2017-12-22T03:53:33.123Z,62.75
2017-12-22T03:56:01.451Z,56.92
2017-12-22T03:58:29.793Z,53.47
2017-12-22T04:00:58.123Z,47.55
2017-12-22T04:03:26.478Z,72.82
2017-12-22T04:05:54.810Z,66.37
2017-12-22T04:08:23.150Z,57.90
2017-12-22T04:10:51.478Z,66.45
2017-12-22T04:13:19.818Z,60.05
2017-12-22T04:15:48.142Z,53.13
2017-12-22T04:18:16.502Z,57.15
2017-12-22T04:20:44.827Z,53.63
2017-12-22T04:23:13.154Z,60.80
2017-12-22T04:25:41.496Z,49.75
2017-12-22T04:28:09.818Z,50.25
2017-12-22T04:30:38.157Z,74.53
2017-12-22T04:33:06.485Z,43.70
2017-12-22T04:35:34.830Z,48.00
2017-12-22T04:38:03.149Z,45.05
2017-12-22T04:40:31.501Z,47.03
2017-12-22T04:42:59.942Z,47.60
2017-12-22T04:45:28.290Z,55.10
2017-12-22T04:47:56.617Z,45.30
2017-12-22T04:50:24.966Z,40.45
2017-12-22T04:52:53.289Z,48.55
2017-12-22T04:55:21.634Z,53.80
2017-12-22T04:57:49.966Z,50.10
2017-12-22T05:00:18.311Z,46.47
2017-12-22T05:02:47.469Z,48.45
2017-12-22T05:05:15.815Z,49.03
2017-12-22T05:07:44.137Z,52.00
2017-12-22T05:10:12.507Z,45.05
2017-12-22T05:12:40.829Z,37.95
2017-12-22T05:15:09.149Z,43.65
2017-12-22T05:17:37.490Z,42.47
2017-12-22T05:20:05.825Z,33.33
2017-12-22T05:22:34.175Z,33.95
2017-12-22T05:25:02.509Z,40.03
2017-12-22T05:27:30.863Z,45.22
2017-12-22T05:29:59.186Z,47.65
2017-12-22T05:32:27.538Z,34.17
2017-12-22T05:34:55.861Z,40.78
2017-12-22T05:37:24.215Z,41.35
2017-12-22T05:39:52.542Z,37.80
2017-12-22T05:42:20.895Z,35.17
2017-12-22T05:44:49.210Z,33.50
2017-12-22T05:47:17.549Z,38.03
2017-12-22T05:49:45.873Z,38.33
2017-12-22T05:52:14.218Z,35.05
2017-12-22T05:54:42.545Z,38.83
2017-12-22T05:57:10.895Z,37.00
2017-12-22T05:59:39.220Z,43.40
2017-12-22T06:02:07.582Z,33.55
2017-12-22T06:04:35.906Z,38.35
2017-12-22T06:07:04.229Z,39.00
2017-12-22T06:09:32.579Z,47.08
2017-12-22T06:12:00.910Z,37.30
2017-12-22T06:14:29.259Z,39.13
2017-12-22T06:16:57.596Z,43.45
2017-12-22T06:19:25.934Z,41.22
2017-12-22T06:21:54.261Z,43.47
2017-12-22T06:24:22.606Z,34.22
2017-12-22T06:26:50.930Z,42.65
2017-12-22T06:29:19.277Z,37.67
2017-12-22T06:31:47.602Z,49.63
2017-12-22T06:34:15.946Z,33.95
2017-12-22T06:36:44.270Z,36.50
2017-12-22T06:39:12.618Z,33.47
2017-12-22T06:41:40.942Z,42.65
2017-12-22T06:44:09.283Z,39.50
2017-12-22T06:46:37.605Z,30.05
2017-12-22T06:49:05.946Z,31.02
2017-12-22T06:51:34.298Z,32.00
2017-12-22T06:54:02.626Z,37.97
2017-12-22T06:56:30.973Z,42.78
2017-12-22T06:58:59.303Z,45.90
2017-12-22T07:01:27.649Z,33.28
2017-12-22T07:03:56.025Z,34.80
2017-12-22T07:06:24.381Z,31.55
2017-12-22T07:08:52.698Z,39.05
2017-12-22T07:11:21.050Z,40.20
2017-12-22T07:13:49.378Z,36.70
2017-12-22T07:16:17.721Z,48.25
2017-12-22T07:18:46.050Z,47.08
2017-12-22T07:21:14.398Z,45.90
2017-12-22T07:23:42.731Z,36.88
2017-12-22T07:26:11.070Z,34.25
2017-12-22T07:28:39.385Z,32.53
2017-12-22T07:31:07.726Z,29.10
2017-12-22T07:33:36.079Z,31.58
2017-12-22T07:36:04.394Z,30.60
2017-12-22T07:38:32.710Z,26.33
2017-12-22T07:41:01.053Z,36.73
2017-12-22T07:43:29.388Z,40.60
2017-12-22T07:45:57.737Z,33.80
2017-12-22T07:48:26.061Z,29.03
2017-12-22T07:50:54.412Z,38.93
2017-12-22T07:53:22.773Z,34.13
2017-12-22T07:55:51.187Z,32.33
2017-12-22T07:58:19.518Z,25.10
2017-12-22T08:00:47.871Z,201.63
2017-12-22T08:03:16.206Z,37.87
2017-12-22T08:05:44.549Z,27.30
2017-12-22T08:08:12.878Z,27.37
2017-12-22T08:10:41.258Z,31.93
2017-12-22T08:13:09.586Z,32.58
2017-12-22T08:15:37.951Z,26.73
2017-12-22T08:18:06.270Z,27.53
2017-12-22T08:20:35.323Z,30.40
2017-12-22T08:23:03.642Z,23.67
2017-12-22T08:25:32.378Z,17.30
2017-12-22T08:28:00.703Z,26.23
2017-12-22T08:30:29.047Z,35.43
2017-12-22T08:32:57.366Z,27.65
2017-12-22T08:35:26.666Z,33.93
2017-12-22T08:37:54.990Z,22.90
2017-12-22T08:40:23.352Z,23.77
2017-12-22T08:42:51.673Z,26.73
2017-12-22T08:45:21.174Z,30.17
2017-12-22T08:47:49.518Z,28.43
2017-12-22T08:50:17.838Z,20.77
2017-12-22T08:52:46.182Z,32.83
2017-12-22T08:55:14.502Z,25.13
2017-12-22T08:57:42.842Z,30.50
2017-12-22T09:00:11.245Z,21.27
2017-12-22T09:02:39.586Z,28.77
2017-12-22T09:05:07.902Z,31.80
2017-12-22T09:07:36.304Z,25.13
2017-12-22T09:10:04.586Z,32.80
2017-12-22T09:12:32.927Z,19.27
2017-12-22T09:15:01.273Z,28.23
2017-12-22T09:17:29.598Z,36.50
2017-12-22T09:19:57.922Z,22.87
2017-12-22T09:22:26.266Z,24.60
2017-12-22T09:24:55.590Z,34.26
2017-12-22T09:27:23.938Z,21.90
2017-12-22T09:29:52.263Z,40.73
2017-12-22T09:32:20.620Z,40.83
2017-12-22T09:34:48.951Z,53.40
2017-12-22T09:37:17.298Z,39.15
2017-12-22T09:39:45.626Z,46.35
2017-12-22T09:42:13.978Z,61.87
2017-12-22T09:44:43.094Z,51.45
2017-12-22T09:47:11.447Z,43.87
2017-12-22T09:49:39.774Z,51.63
2017-12-22T09:52:08.122Z,39.35
2017-12-22T09:54:36.457Z,49.97
2017-12-22T09:57:04.814Z,41.57
2017-12-22T09:59:33.138Z,45.83
2017-12-22T10:02:01.486Z,42.03
2017-12-22T10:04:30.754Z,37.20
2017-12-22T10:06:59.101Z,35.67
2017-12-22T10:09:27.426Z,29.90
2017-12-22T10:11:55.771Z,43.40
2017-12-22T10:14:24.094Z,34.40
2017-12-22T10:16:52.433Z,25.73
2017-12-22T10:19:20.761Z,19.57
2017-12-22T10:21:49.097Z,36.13
2017-12-22T10:24:17.567Z,35.70
2017-12-22T10:26:45.906Z,29.27
2017-12-22T10:29:14.230Z,24.73
2017-12-22T10:31:42.574Z,23.48
2017-12-22T10:34:10.899Z,26.70
2017-12-22T10:36:39.267Z,17.90
2017-12-22T10:39:07.558Z,19.40
2017-12-22T10:41:35.906Z,21.33
2017-12-22T10:44:04.226Z,22.73
2017-12-22T10:46:32.550Z,20.75
2017-12-22T10:49:00.899Z,27.83
2017-12-22T10:51:29.227Z,22.02
2017-12-22T10:53:57.571Z,16.03
2017-12-22T10:56:25.893Z,24.27
2017-12-22T10:58:54.251Z,27.30
2017-12-22T11:01:22.570Z,25.17
2017-12-22T11:03:50.914Z,22.30
2017-12-22T11:06:19.243Z,19.17
2017-12-22T11:08:48.822Z,20.83
2017-12-22T11:11:17.136Z,26.83
2017-12-22T11:13:45.481Z,23.73
2017-12-22T11:16:13.808Z,28.83
2017-12-22T11:18:42.154Z,21.03
2017-12-22T11:21:10.478Z,27.70
2017-12-22T11:23:38.829Z,19.90
2017-12-22T11:26:07.159Z,20.77
2017-12-22T11:28:35.507Z,27.33
2017-12-22T11:31:03.835Z,21.27
2017-12-22T11:33:32.178Z,17.98
2017-12-22T11:36:00.500Z,23.43
2017-12-22T11:38:28.846Z,22.00
2017-12-22T11:40:57.170Z,18.17
2017-12-22T11:43:25.514Z,25.30
2017-12-22T11:45:53.834Z,17.30
2017-12-22T11:48:22.178Z,17.57
2017-12-22T11:50:50.507Z,18.27
2017-12-22T11:53:18.851Z,18.55
2017-12-22T11:55:48.169Z,20.87
2017-12-22T11:58:16.519Z,22.73
2017-12-22T12:00:44.845Z,27.00
2017-12-22T12:03:13.184Z,59.50
2017-12-22T12:05:42.493Z,25.00
2017-12-22T12:08:10.833Z,26.53
2017-12-22T12:10:39.160Z,20.97
2017-12-22T12:13:07.507Z,21.55
2017-12-22T12:15:35.822Z,25.30
2017-12-22T12:18:04.786Z,19.60
2017-12-22T12:20:33.110Z,27.97
2017-12-22T12:23:01.462Z,30.80
2017-12-22T12:25:30.747Z,31.85
2017-12-22T12:27:59.090Z,32.23
2017-12-22T12:30:27.542Z,33.67
2017-12-22T12:32:55.892Z,32.50
2017-12-22T12:35:25.242Z,32.63
2017-12-22T12:37:53.578Z,36.20
2017-12-22T12:40:21.962Z,34.70
2017-12-22T12:42:50.308Z,26.80
2017-12-22T12:45:19.513Z,34.30
2017-12-22T12:47:48.025Z,31.80
2017-12-22T12:50:16.346Z,24.30
2017-12-22T12:52:44.690Z,30.12
2017-12-22T12:55:13.030Z,27.63
2017-12-22T12:57:41.353Z,32.30
2017-12-22T13:00:09.702Z,24.87
2017-12-22T13:02:38.023Z,31.90
2017-12-22T13:05:06.374Z,25.00
2017-12-22T13:07:34.699Z,30.40
2017-12-22T13:10:03.056Z,32.30
2017-12-22T13:12:31.378Z,27.55
2017-12-22T13:14:59.734Z,38.90
2017-12-22T13:17:28.054Z,27.53
2017-12-22T13:19:56.398Z,32.45
2017-12-22T13:22:24.726Z,40.47
2017-12-22T13:24:53.075Z,20.97
2017-12-22T13:27:21.402Z,17.83
2017-12-22T13:29:49.763Z,27.13
2017-12-22T13:32:18.083Z,28.03
2017-12-22T13:34:46.428Z,26.23
2017-12-22T13:37:14.746Z,28.60
2017-12-22T13:39:43.099Z,25.33
2017-12-22T13:42:11.426Z,28.97
2017-12-22T13:44:39.776Z,30.73
2017-12-22T13:47:08.106Z,25.00
2017-12-22T13:49:36.458Z,27.25
2017-12-22T13:52:04.785Z,31.43
2017-12-22T13:54:33.135Z,33.67
2017-12-22T13:57:04.098Z,23.10
2017-12-22T13:59:32.450Z,26.43
2017-12-22T14:02:00.773Z,29.27
2017-12-22T14:04:29.131Z,41.67
2017-12-22T14:06:57.458Z,45.43
2017-12-22T14:09:25.815Z,51.22
2017-12-22T14:11:54.146Z,57.87
2017-12-22T14:14:22.489Z,55.60
2017-12-22T14:16:50.822Z,50.83
2017-12-22T14:19:19.177Z,54.93
2017-12-22T14:21:47.513Z,51.63
2017-12-22T14:24:15.860Z,46.43
2017-12-22T14:26:44.195Z,53.67
2017-12-22T14:29:12.542Z,57.35
2017-12-22T14:31:40.865Z,59.40
2017-12-22T14:34:09.228Z,46.28
2017-12-22T14:36:37.551Z,58.72
2017-12-22T14:39:05.911Z,60.80
2017-12-22T14:41:34.234Z,55.83
2017-12-22T14:44:02.591Z,54.07
2017-12-22T14:46:30.914Z,55.55
2017-12-22T14:48:59.266Z,57.27
2017-12-22T14:51:27.594Z,50.93
2017-12-22T14:53:55.945Z,57.77
2017-12-22T14:56:24.279Z,48.50
2017-12-22T14:58:52.610Z,53.73
2017-12-22T15:01:20.958Z,45.60
2017-12-22T15:03:49.286Z,45.50
2017-12-22T15:06:17.639Z,46.27
2017-12-22T15:08:45.963Z,41.92
2017-12-22T15:11:14.311Z,44.33
2017-12-22T15:13:42.634Z,39.70
2017-12-22T15:16:10.981Z,36.50
2017-12-22T15:18:39.311Z,29.63
2017-12-22T15:21:07.659Z,36.93
2017-12-22T15:23:35.984Z,30.90
2017-12-22T15:26:04.330Z,36.27
2017-12-22T15:28:32.666Z,37.30
2017-12-22T15:31:01.010Z,48.78
2017-12-22T15:33:29.333Z,52.33
2017-12-22T15:35:57.685Z,48.00
2017-12-22T15:38:26.013Z,44.42
2017-12-22T15:40:54.367Z,36.47
2017-12-22T15:43:22.694Z,36.60
2017-12-22T15:45:51.054Z,33.35
2017-12-22T15:48:19.396Z,28.85
2017-12-22T15:50:47.739Z,25.10
2017-12-22T15:53:16.078Z,32.38
2017-12-22T15:55:44.422Z,26.17
2017-12-22T15:58:12.745Z,29.73
2017-12-22T16:00:41.095Z,29.30
2017-12-22T16:03:09.431Z,28.50
2017-12-22T16:05:37.782Z,35.83
2017-12-22T16:08:06.112Z,28.57
2017-12-22T16:10:34.454Z,35.30
2017-12-22T16:13:02.786Z,35.97
2017-12-22T16:15:31.129Z,41.27
2017-12-22T16:17:59.462Z,41.90
2017-12-22T16:20:27.842Z,39.07
2017-12-22T16:22:56.146Z,33.53
2017-12-22T16:25:24.498Z,44.03
2017-12-22T16:27:52.856Z,39.67
2017-12-22T16:30:21.202Z,40.33
2017-12-22T16:32:49.531Z,49.43
2017-12-22T16:35:18.777Z,53.77
2017-12-22T16:37:47.098Z,46.23
2017-12-22T16:40:15.450Z,65.87
2017-12-22T16:42:43.774Z,86.13
2017-12-22T16:45:12.127Z,113.68
2017-12-22T16:47:40.458Z,97.23
2017-12-22T16:50:08.806Z,60.27
2017-12-22T16:52:37.134Z,84.93
2017-12-22T16:55:05.514Z,49.30
2017-12-22T16:57:33.842Z,52.47
2017-12-22T17:00:02.213Z,45.77
2017-12-22T17:02:30.577Z,39.28
2017-12-22T17:04:58.906Z,39.97
2017-12-22T17:07:27.262Z,36.38
2017-12-22T17:09:55.585Z,46.40
2017-12-22T17:12:23.937Z,46.37
2017-12-22T17:14:52.264Z,42.90
2017-12-22T17:17:20.614Z,37.70
2017-12-22T17:19:48.937Z,41.63
2017-12-22T17:22:17.286Z,33.07
2017-12-22T17:24:45.638Z,30.33
2017-12-22T17:27:13.968Z,34.00
2017-12-22T17:29:42.752Z,41.75
2017-12-22T17:32:11.102Z,36.30
2017-12-22T17:34:39.427Z,35.33
2017-12-22T17:37:07.778Z,45.17
2017-12-22T17:39:36.101Z,45.83
2017-12-22T17:42:04.458Z,27.92
2017-12-22T17:44:32.796Z,30.10
2017-12-22T17:47:01.130Z,22.43
2017-12-22T17:49:29.450Z,30.97
2017-12-22T17:51:57.798Z,24.37
2017-12-22T17:54:26.119Z,33.30
2017-12-22T17:56:54.470Z,52.50
2017-12-22T17:59:22.802Z,47.05
2017-12-22T18:01:51.154Z,29.00
2017-12-22T18:04:19.479Z,30.33
2017-12-22T18:06:47.862Z,20.63
2017-12-22T18:09:15.939Z,24.63
2017-12-22T18:11:43.999Z,23.53
2017-12-22T18:14:12.038Z,26.87
2017-12-22T18:16:40.107Z,18.48
2017-12-22T18:19:08.150Z,18.70
2017-12-22T18:21:36.210Z,19.43
2017-12-22T18:24:04.781Z,19.27
2017-12-22T18:26:34.602Z,20.53
2017-12-22T18:29:02.926Z,29.08
2017-12-22T18:31:31.272Z,30.80
2017-12-22T18:33:59.602Z,36.85
2017-12-22T18:36:27.955Z,29.43
2017-12-22T18:38:56.292Z,36.60
2017-12-22T18:41:24.634Z,28.74
2017-12-22T18:43:52.966Z,35.63
2017-12-22T18:46:21.310Z,25.43
2017-12-22T18:48:49.630Z,22.70
2017-12-22T18:51:17.982Z,25.67
2017-12-22T18:53:46.311Z,30.17
2017-12-22T18:56:14.701Z,45.53
2017-12-22T18:58:43.033Z,28.33
2017-12-22T19:01:11.350Z,26.23
2017-12-22T19:03:39.705Z,32.93
2017-12-22T19:06:08.022Z,27.90
2017-12-22T19:08:36.377Z,29.02
2017-12-22T19:11:04.702Z,37.07
2017-12-22T19:13:33.054Z,30.77
2017-12-22T19:16:01.383Z,30.70
2017-12-22T19:18:29.734Z,31.10
2017-12-22T19:20:58.058Z,40.27
2017-12-22T19:23:26.880Z,31.40
2017-12-22T19:25:55.195Z,45.60
2017-12-22T19:28:24.374Z,39.77
2017-12-22T19:30:52.703Z,43.70
2017-12-22T19:33:21.056Z,34.60
2017-12-22T19:35:55.782Z,34.50
2017-12-22T19:38:24.134Z,34.33
2017-12-22T19:40:52.480Z,40.90
2017-12-22T19:43:20.869Z,39.72
2017-12-22T19:45:49.206Z,40.90
2017-12-22T19:48:18.051Z,39.22
2017-12-22T19:50:46.379Z,44.73
2017-12-22T19:53:14.726Z,50.47
2017-12-22T19:55:43.059Z,53.42
2017-12-22T19:58:11.411Z,41.80
2017-12-22T20:00:39.737Z,34.20
2017-12-22T20:03:19.801Z,37.75
2017-12-22T20:05:48.127Z,34.77
2017-12-22T20:08:16.479Z,35.55
2017-12-22T20:10:44.815Z,31.47
2017-12-22T20:13:13.171Z,33.10
2017-12-22T20:15:41.817Z,41.50
2017-12-22T20:18:10.166Z,41.63
2017-12-22T20:20:38.502Z,42.07
2017-12-22T20:23:06.855Z,29.20
2017-12-22T20:25:36.071Z,33.75
2017-12-22T20:28:04.433Z,42.13
2017-12-22T20:30:32.754Z,41.00
2017-12-22T20:33:01.113Z,41.10
2017-12-22T20:35:29.567Z,33.22
2017-12-22T20:37:57.913Z,41.20
2017-12-22T20:40:26.261Z,35.50
2017-12-22T20:42:54.614Z,47.28
2017-12-22T20:45:22.941Z,40.83
2017-12-22T20:47:51.284Z,37.50
2017-12-22T20:50:19.610Z,38.20
2017-12-22T20:52:47.959Z,43.80
2017-12-22T20:55:16.386Z,41.10
2017-12-22T20:57:44.739Z,40.37
2017-12-22T21:00:13.079Z,44.20
2017-12-22T21:02:41.410Z,40.00
2017-12-22T21:05:09.742Z,44.07
2017-12-22T21:07:38.085Z,43.10
2017-12-22T21:10:06.411Z,36.67
2017-12-22T21:12:34.762Z,41.13
2017-12-22T21:15:04.115Z,36.50
2017-12-22T21:17:32.594Z,36.13
2017-12-22T21:20:00.923Z,34.83
2017-12-22T21:22:29.263Z,33.83
2017-12-22T21:24:57.609Z,32.63
2017-12-22T21:27:25.934Z,37.20
2017-12-22T21:29:54.286Z,39.77
2017-12-22T21:32:22.618Z,35.23
2017-12-22T21:34:50.965Z,43.23
2017-12-22T21:37:19.321Z,45.17
2017-12-22T21:39:47.667Z,40.50
2017-12-22T21:42:15.995Z,42.60
2017-12-22T21:44:44.350Z,42.07
2017-12-22T21:47:12.733Z,43.77
2017-12-22T21:49:41.086Z,37.60
2017-12-22T21:52:09.422Z,35.03
2017-12-22T21:54:37.771Z,42.75
2017-12-22T21:57:06.098Z,44.37
2017-12-22T21:59:34.446Z,45.33
2017-12-22T22:02:02.778Z,52.42
2017-12-22T22:04:31.124Z,45.10
2017-12-22T22:06:59.505Z,38.42
2017-12-22T22:09:27.850Z,44.87
2017-12-22T22:11:56.174Z,44.80
2017-12-22T22:14:24.530Z,45.67
2017-12-22T22:16:52.910Z,43.97
2017-12-22T22:19:21.212Z,53.53
2017-12-22T22:21:49.538Z,56.47
2017-12-22T22:24:17.886Z,50.83
2017-12-22T22:26:47.214Z,60.80
2017-12-22T22:29:15.562Z,52.67
2017-12-22T22:31:43.953Z,53.07
2017-12-22T22:34:13.231Z,58.15
2017-12-22T22:36:41.604Z,58.20
2017-12-22T22:39:09.953Z,62.70
2017-12-22T22:41:38.278Z,62.73
2017-12-22T22:44:06.631Z,55.73
2017-12-22T22:46:35.516Z,54.50
2017-12-22T22:49:03.850Z,51.87
2017-12-22T22:51:32.210Z,63.25
2017-12-22T22:54:00.566Z,55.97
2017-12-22T22:56:28.894Z,62.87
2017-12-22T22:58:57.241Z,64.07
2017-12-22T23:01:25.574Z,68.90
2017-12-22T23:03:53.931Z,63.87
2017-12-22T23:06:22.266Z,62.42
2017-12-22T23:08:50.613Z,51.83
2017-12-22T23:11:18.979Z,60.77
2017-12-22T23:13:47.306Z,70.10
2017-12-22T23:16:15.642Z,64.47
2017-12-22T23:18:44.006Z,64.27
2017-12-22T23:21:12.337Z,62.83
2017-12-22T23:23:40.666Z,66.70
2017-12-22T23:26:09.015Z,62.92
2017-12-22T23:28:37.648Z,68.63
2017-12-22T23:31:06.369Z,70.97
2017-12-22T23:33:35.464Z,84.18
2017-12-22T23:36:04.257Z,68.97
2017-12-22T23:38:33.006Z,72.07
2017-12-22T23:41:01.405Z,80.23
2017-12-22T23:43:29.735Z,71.87
2017-12-22T23:45:58.087Z,77.23
2017-12-22T23:48:26.409Z,70.97
2017-12-22T23:50:54.760Z,72.10
2017-12-22T23:53:23.090Z,83.67
2017-12-22T23:55:51.442Z,79.85
2017-12-22T23:58:19.774Z,82.43
